OIHH  Hamadan  Airport

Hamadan, Iran

Add Bookmark
ICAO OIHH
IATA HDM
Type Airport
Status Operational
Latitude
34° 52' 9" N
34.869202
Longitude
48° 33' 9" E
48.552502
Local (DST + 5) UTC (GMT + 4)
Jul 30, 2015 02:37 Jul 30, 2015 10:07
Sunrise-Sunset Local UTC
Begin Civil Twilight 05:54 01:24
Sunrise 06:22 01:52
Sunset 08:21 15:51
End Civil Twilight 08:49 16:19
VFR
VFR
MVFR
MVFR
IFR
IFR
LIFR
LIFR
Unknown
Unavailable

Current Weather

METAR Observed VFR
OIHH 300900Z 28006KT 9999 FEW040 33/02 Q1019 Thu, Jul 30, 2015 @ 09:00 UTC
(1 Hour, 7 Minutes ago)
Visual Flight Rules
Wind Visibility Clouds Conditions
280° at 6 knots (11 kph) 10 km or more
  • Few at 4,000 ft AGL
  • No significant weather
Temperatures Readings Precipitation
Current Temp
33°C
91°F
Dewpoint
2°C
36°F
Humidity 14%
Altimeter 30.09" Hg
Sea Level Pressure 1,019 mb
Field Elevation
1,757 m
5,764 ft
None Recorded

Additional weather within a 92.6km radius of OIHH

Map ICAO Location
OIHM 69.5km S/SE (160°)
VFR
VFR
MVFR
MVFR
IFR
IFR
LIFR
LIFR
Unknown
Unavailable
-
-

CheckWX.com is intended as a tool to help pilots better visualize weather data. It is not intended as a substitute for an official weather briefing obtained from a Flight Service Station. CheckWX.com does not meet the FAA requirements for an official pre-flight weather briefing. Therefore, it's important that pilots still call and obtain an official FSS pre-flight weather briefing.

© 2007-2015 CheckWX.com
10:07:22 UTC